< < Back
Terminal Aerodrome Forecast


Current Version              Previous Versions:   1  2  3  4  5  6  7  8  9  

Terminal Aerodrome Forecast

395
FTUS44 KBMX 030520
TAFMGM
TAF
KMGM 030520Z 0306/0406 00000KT P6SM SKC=

Latest METAR

764
SAUS80 KWBC 031000 RRA
MTRMGM
METAR KMGM 030953Z AUTO 00000KT 10SM CLR 12/10 A3010 RMK AO2 SLP192
T01170100


USA.gov is the U.S. government's official web portal to all federal, state and local government web resources and services.